Flagstaff Pulliam Airport
KFLG : now visible

Airfield :











YOU CAN JOIN US ON...

 
LOGIN :

Register | Disclaimer

   EN    FR    IT 

 









Legend :    VFR   Marginal VFR   IFR   Intensive IFR   Very Intensive IFR
Visi :
Ceiling :
>= 8 km
>= 3000ft
5 to 8 km
1000 to 3000 ft
1500m to 5 km
500 to 1000 ft
800 to 1500m
200 to 500 ft
< 800m
< 200 ft
Symbols :   Thunderstorms  Fog  Heavy snow  Heavy precipitations  Wind > 20 kt






- Airport Elevation : 7014 ft
- IATA code : FLG


KFLG - Flagstaff Pulliam

CURRENT METAR :
  • 291057Z AUTO 00000KT 10SM CLR 13/08 A3039 RMK AO2 SLP182 T01280078

EXPIRED METARs :
  • 290957Z AUTO 00000KT 10SM SCT110 14/08 A3038 RMK AO2 SLP175 T01440078
  • 290857Z AUTO 00000KT 10SM BKN110 14/07 A3039 RMK AO2 SLP178 T01390072 56006

TAF KFLG
Valid from the 29 at 12:00 until the 30 at 12:00 UTC


291120Z 2912/3012 20004KT P6SM SCT110
FM292000 VRB06KT P6SM VCTS SCT070CB BKN100
TEMPO 2921/2924 VRB15G25KT -TSRA BKN050CB
FM300100 VRB04KT P6SM SCT070 BKN110
KZAB FIR / North America



MET'MAP, your aeronautical weather chart ! - Copyright ORBIFLY December 2007 - Disclaimer

ORBIFLY MET'MAP TEAM :

Programming & Development : Alexandra Zaïnal
Original concept : Baudouin d'Aumeries
Technical & hardware support : Manuel Goepfert
Assistance : Marc-Olivier Méhu




SOURCES & CREDITS :

   NOAA       Earth
Advisory